createdAt,value
2022-09-12T00:00:15.741Z,19.43
2022-09-12T00:02:42.810Z,19.60
2022-09-12T00:05:09.901Z,19.00
2022-09-12T00:07:36.993Z,18.43
2022-09-12T00:10:04.371Z,18.77
2022-09-12T00:12:31.441Z,17.50
2022-09-12T00:14:58.609Z,18.20
2022-09-12T00:17:25.716Z,17.33
2022-09-12T00:19:53.085Z,18.60
2022-09-12T00:22:20.148Z,18.10
2022-09-12T00:24:47.215Z,18.30
2022-09-12T00:27:14.341Z,18.87
2022-09-12T00:29:41.793Z,19.93
2022-09-12T00:32:08.877Z,19.53
2022-09-12T00:34:37.186Z,18.10
2022-09-12T00:37:04.529Z,19.50
2022-09-12T00:39:31.649Z,21.33
2022-09-12T00:41:58.713Z,22.53
2022-09-12T00:44:25.778Z,22.10
2022-09-12T00:46:52.810Z,24.03
2022-09-12T00:49:19.852Z,24.93
2022-09-12T00:51:55.406Z,26.40
2022-09-12T00:54:26.246Z,23.90
2022-09-12T00:56:54.771Z,23.63
2022-09-12T00:59:24.478Z,24.03
2022-09-12T01:01:52.437Z,23.00
2022-09-12T01:04:21.091Z,23.17
2022-09-12T01:06:48.948Z,22.10
2022-09-12T01:09:20.547Z,22.07
2022-09-12T01:11:48.587Z,20.70
2022-09-12T01:14:16.427Z,19.13
2022-09-12T01:16:45.161Z,19.63
2022-09-12T01:19:31.914Z,19.27
2022-09-12T01:22:02.051Z,16.87
2022-09-12T01:24:35.440Z,16.00
2022-09-12T01:27:05.330Z,14.90
2022-09-12T01:29:38.297Z,14.50
2022-09-12T01:32:11.251Z,16.10
2022-09-12T01:34:44.852Z,17.13
2022-09-12T01:37:11.918Z,16.63
2022-09-12T01:39:46.555Z,16.40
2022-09-12T01:42:32.357Z,16.67
2022-09-12T01:45:11.561Z,15.90
2022-09-12T01:47:47.527Z,15.87
2022-09-12T01:50:17.623Z,15.60
2022-09-12T01:53:04.969Z,17.17
2022-09-12T01:55:35.020Z,16.13
2022-09-12T01:58:07.909Z,11.80
2022-09-12T02:00:36.285Z,12.40
2022-09-12T02:03:10.491Z,16.37
2022-09-12T02:05:40.162Z,14.87
2022-09-12T02:08:08.907Z,21.50
2022-09-12T02:10:41.777Z,17.93
2022-09-12T02:13:17.652Z,18.10
2022-09-12T02:15:48.454Z,16.20
2022-09-12T02:18:18.012Z,18.20
2022-09-12T02:20:48.814Z,21.10
2022-09-12T02:23:28.253Z,17.80
2022-09-12T02:25:57.873Z,18.43
2022-09-12T02:28:33.547Z,21.17
2022-09-12T02:31:19.817Z,19.33
2022-09-12T02:33:52.856Z,16.13
2022-09-12T02:36:39.495Z,15.97
2022-09-12T02:39:06.834Z,14.10
2022-09-12T02:41:34.012Z,14.37
2022-09-12T02:44:01.337Z,13.37
2022-09-12T02:46:39.238Z,11.87
2022-09-12T02:49:08.820Z,11.03
2022-09-12T02:51:36.502Z,12.10
2022-09-12T02:54:06.445Z,13.70
2022-09-12T02:56:33.901Z,13.70
2022-09-12T02:59:03.630Z,15.03
2022-09-12T03:01:42.734Z,15.80
2022-09-12T03:04:18.701Z,15.50
2022-09-12T03:06:45.764Z,16.43
2022-09-12T03:09:16.460Z,16.17
2022-09-12T03:11:43.667Z,16.10
2022-09-12T03:14:32.501Z,16.47
2022-09-12T03:17:08.533Z,15.77
2022-09-12T03:19:52.198Z,12.37
2022-09-12T03:22:22.447Z,15.70
2022-09-12T03:25:12.795Z,13.80
2022-09-12T03:27:41.709Z,16.47
2022-09-12T03:30:10.842Z,18.80
2022-09-12T03:32:48.351Z,21.50
2022-09-12T03:35:20.890Z,14.57
2022-09-12T03:37:50.640Z,15.53
2022-09-12T03:40:17.819Z,18.33
2022-09-12T03:42:44.918Z,15.53
2022-09-12T03:45:12.054Z,19.10
2022-09-12T03:47:39.105Z,16.90
2022-09-12T03:50:06.480Z,15.07
2022-09-12T03:52:34.082Z,13.30
2022-09-12T03:55:01.238Z,14.17
2022-09-12T03:57:28.355Z,12.67
2022-09-12T03:59:55.463Z,14.60
2022-09-12T04:02:22.565Z,13.37
2022-09-12T04:04:49.651Z,13.93
2022-09-12T04:07:17.171Z,15.90
2022-09-12T04:09:44.283Z,13.77
2022-09-12T04:12:11.395Z,15.67
2022-09-12T04:14:38.590Z,14.80
2022-09-12T04:17:05.646Z,15.63
2022-09-12T04:19:32.787Z,15.50
2022-09-12T04:21:59.923Z,15.20
2022-09-12T04:24:27.113Z,17.83
2022-09-12T04:26:54.194Z,17.03
2022-09-12T04:29:21.282Z,15.83
2022-09-12T04:31:48.368Z,15.83
2022-09-12T04:34:15.651Z,15.30
2022-09-12T04:36:42.943Z,16.57
2022-09-12T04:39:11.109Z,17.70
2022-09-12T04:41:39.817Z,15.67
2022-09-12T04:44:09.219Z,16.87
2022-09-12T04:46:38.564Z,13.70
2022-09-12T04:49:05.952Z,13.67
2022-09-12T04:51:35.815Z,16.27
2022-09-12T04:54:07.291Z,16.57
2022-09-12T04:56:37.441Z,14.77
2022-09-12T04:59:04.549Z,18.27
2022-09-12T05:01:31.737Z,16.13
2022-09-12T05:04:00.073Z,14.67
2022-09-12T05:06:31.732Z,15.30
2022-09-12T05:08:59.432Z,18.60
2022-09-12T05:11:41.316Z,16.60
2022-09-12T05:14:15.223Z,16.03
2022-09-12T05:16:45.114Z,15.60
2022-09-12T05:19:14.317Z,15.63
2022-09-12T05:21:41.411Z,18.83
2022-09-12T05:24:08.556Z,16.03
2022-09-12T05:26:35.701Z,15.47
2022-09-12T05:29:04.646Z,14.50
2022-09-12T05:31:31.705Z,15.80
2022-09-12T05:33:58.831Z,13.83
2022-09-12T05:36:27.209Z,14.20
2022-09-12T05:38:54.588Z,13.77
2022-09-12T05:41:25.084Z,14.67
2022-09-12T05:43:56.349Z,13.40
2022-09-12T05:46:25.670Z,13.43
2022-09-12T05:48:56.109Z,12.30
2022-09-12T05:51:28.069Z,11.93
2022-09-12T05:53:58.847Z,13.77
2022-09-12T05:56:27.337Z,12.30
2022-09-12T05:59:02.293Z,12.27
2022-09-12T06:01:30.690Z,12.87
2022-09-12T06:04:00.720Z,12.20
2022-09-12T06:06:28.448Z,12.53
2022-09-12T06:08:58.033Z,12.10
2022-09-12T06:11:26.383Z,12.00
2022-09-12T06:13:53.615Z,11.80
2022-09-12T06:16:21.824Z,12.13
2022-09-12T06:18:53.633Z,13.90
2022-09-12T06:21:21.766Z,12.07
2022-09-12T06:23:49.458Z,11.73
2022-09-12T06:26:17.503Z,12.13
2022-09-12T06:28:45.149Z,11.90
2022-09-12T06:31:13.655Z,12.03
2022-09-12T06:33:41.885Z,13.07
2022-09-12T06:36:12.488Z,12.93
2022-09-12T06:38:40.583Z,12.93
2022-09-12T06:41:08.911Z,11.60
2022-09-12T06:43:38.813Z,19.90
2022-09-12T06:46:06.202Z,11.37
2022-09-12T06:48:33.608Z,11.73
2022-09-12T06:51:00.910Z,12.43
2022-09-12T06:53:28.467Z,12.50
2022-09-12T06:56:06.998Z,11.67
2022-09-12T06:58:34.951Z,11.33
2022-09-12T07:01:03.625Z,11.23
2022-09-12T07:03:31.130Z,11.13
2022-09-12T07:05:58.476Z,12.47
2022-09-12T07:08:25.839Z,12.77
2022-09-12T07:10:52.947Z,11.73
2022-09-12T07:13:19.998Z,11.80
2022-09-12T07:15:47.124Z,11.77
2022-09-12T07:18:14.167Z,12.43
2022-09-12T07:20:42.782Z,12.60
2022-09-12T07:23:09.901Z,11.40
2022-09-12T07:25:37.661Z,11.47
2022-09-12T07:28:04.802Z,11.30
2022-09-12T07:30:31.910Z,10.77
2022-09-12T07:32:59.043Z,11.70
2022-09-12T07:35:26.182Z,11.30
2022-09-12T07:37:53.230Z,11.03
2022-09-12T07:40:20.329Z,11.50
2022-09-12T07:42:47.870Z,11.30
2022-09-12T07:45:15.514Z,12.30
2022-09-12T07:47:42.616Z,11.63
2022-09-12T07:50:09.905Z,11.07
2022-09-12T07:52:37.036Z,11.23
2022-09-12T07:55:04.298Z,10.73
2022-09-12T07:57:31.537Z,11.27
2022-09-12T07:59:58.622Z,12.37
2022-09-12T08:02:25.695Z,10.70
2022-09-12T08:04:53.635Z,11.20
2022-09-12T08:07:20.808Z,10.97
2022-09-12T08:09:48.199Z,11.03
2022-09-12T08:12:16.215Z,11.73
2022-09-12T08:14:43.270Z,12.13
2022-09-12T08:17:10.469Z,12.40
2022-09-12T08:19:38.790Z,12.83
2022-09-12T08:22:05.900Z,14.33
2022-09-12T08:24:33.547Z,14.47
2022-09-12T08:27:00.650Z,16.07
2022-09-12T08:29:27.728Z,16.77
2022-09-12T08:31:57.257Z,14.83
2022-09-12T08:34:24.999Z,13.83
2022-09-12T08:36:54.300Z,15.70
2022-09-12T08:39:22.018Z,17.60
2022-09-12T08:41:49.781Z,15.43
2022-09-12T08:44:26.913Z,15.97
2022-09-12T08:47:00.065Z,17.07
2022-09-12T08:49:33.817Z,19.23
2022-09-12T08:52:04.408Z,16.70
2022-09-12T08:54:32.006Z,15.50
2022-09-12T08:57:02.808Z,14.60
2022-09-12T08:59:36.266Z,14.20
2022-09-12T09:02:04.467Z,14.03
2022-09-12T09:04:40.707Z,13.93
2022-09-12T09:07:16.749Z,13.63
2022-09-12T09:09:55.069Z,13.20
2022-09-12T09:12:31.030Z,12.40
2022-09-12T09:15:09.910Z,13.43
2022-09-12T09:17:48.511Z,14.90
2022-09-12T09:20:24.691Z,14.90
2022-09-12T09:22:53.967Z,12.88
2022-09-12T09:25:47.225Z,14.10
2022-09-12T09:28:23.394Z,14.18
2022-09-12T09:30:50.867Z,13.65
2022-09-12T09:33:22.687Z,14.40
2022-09-12T09:36:14.756Z,13.07
2022-09-12T09:38:44.715Z,11.90
2022-09-12T09:41:18.708Z,10.77
2022-09-12T09:43:45.870Z,10.90
2022-09-12T09:46:14.230Z,10.07
2022-09-12T09:48:42.763Z,10.20
2022-09-12T09:51:10.132Z,9.95
2022-09-12T09:53:48.846Z,10.32
2022-09-12T09:56:35.540Z,9.43
2022-09-12T09:59:17.860Z,10.43
2022-09-12T10:01:49.192Z,10.32
2022-09-12T10:04:23.956Z,8.85
2022-09-12T10:06:58.130Z,9.52
2022-09-12T10:09:36.152Z,9.50
2022-09-12T10:12:21.291Z,10.05
2022-09-12T10:15:18.297Z,9.75
2022-09-12T10:17:46.526Z,8.88
2022-09-12T10:20:32.176Z,10.00
2022-09-12T10:23:00.776Z,9.32
2022-09-12T10:25:28.116Z,9.25
2022-09-12T10:27:57.277Z,9.40
2022-09-12T10:30:27.914Z,8.90
2022-09-12T10:32:57.967Z,8.63
2022-09-12T10:35:28.897Z,9.32
2022-09-12T10:37:57.759Z,9.38
2022-09-12T10:40:32.770Z,9.32
2022-09-12T10:43:00.487Z,8.88
2022-09-12T10:45:32.059Z,9.60
2022-09-12T10:48:19.436Z,9.68
2022-09-12T10:50:46.576Z,10.07
2022-09-12T10:53:23.854Z,9.45
2022-09-12T10:56:26.532Z,9.45
2022-09-12T10:58:59.812Z,9.55
2022-09-12T11:01:33.883Z,10.18
2022-09-12T11:04:10.629Z,9.55
2022-09-12T11:06:45.176Z,8.70
2022-09-12T11:09:18.189Z,9.25
2022-09-12T11:12:03.769Z,8.55
2022-09-12T11:14:30.820Z,7.85
2022-09-12T11:17:00.704Z,7.38
2022-09-12T11:19:34.019Z,7.90
2022-09-12T11:22:05.346Z,7.70
2022-09-12T11:24:39.811Z,6.78
2022-09-12T11:27:06.886Z,7.18
2022-09-12T11:29:42.430Z,7.00
2022-09-12T11:32:09.482Z,7.68
2022-09-12T11:34:42.682Z,7.15
2022-09-12T11:37:28.292Z,7.53
2022-09-12T11:39:57.004Z,6.85
2022-09-12T11:42:30.599Z,6.70
2022-09-12T11:45:02.128Z,6.40
2022-09-12T11:47:29.953Z,8.65
2022-09-12T11:49:57.304Z,7.57
2022-09-12T11:52:24.822Z,6.18
2022-09-12T11:54:53.830Z,7.07
2022-09-12T11:57:31.881Z,7.88
2022-09-12T12:00:15.720Z,7.07
2022-09-12T12:02:57.859Z,6.82
2022-09-12T12:05:28.393Z,6.90
2022-09-12T12:07:56.727Z,6.18
2022-09-12T12:10:30.920Z,8.07
2022-09-12T12:12:58.852Z,6.97
2022-09-12T12:15:26.688Z,6.30
2022-09-12T12:18:04.586Z,5.70
2022-09-12T12:20:32.059Z,5.80
2022-09-12T12:22:59.220Z,6.57
2022-09-12T12:25:51.613Z,6.80
2022-09-12T12:28:37.567Z,6.18
2022-09-12T12:31:05.617Z,6.47
2022-09-12T12:33:32.815Z,7.38
2022-09-12T12:35:59.858Z,6.70
2022-09-12T12:38:34.130Z,6.15
2022-09-12T12:41:19.223Z,6.40
2022-09-12T12:43:50.229Z,6.25
2022-09-12T12:46:18.923Z,5.38
2022-09-12T12:48:54.302Z,5.90
2022-09-12T12:51:27.099Z,6.25
2022-09-12T12:53:54.786Z,4.75
2022-09-12T12:56:35.959Z,5.85
2022-09-12T12:59:13.801Z,4.70
2022-09-12T13:01:45.651Z,5.97
2022-09-12T13:04:19.813Z,4.80
2022-09-12T13:06:57.348Z,5.10
2022-09-12T13:09:30.166Z,5.18
2022-09-12T13:12:05.357Z,4.90
2022-09-12T13:14:37.564Z,4.80
2022-09-12T13:17:08.251Z,4.55
2022-09-12T13:19:38.139Z,5.40
2022-09-12T13:22:09.542Z,5.57
2022-09-12T13:24:44.677Z,4.88
2022-09-12T13:27:17.695Z,4.80
2022-09-12T13:29:44.775Z,4.60
2022-09-12T13:32:12.077Z,5.00
2022-09-12T13:34:57.345Z,4.35
2022-09-12T13:37:53.713Z,4.47
2022-09-12T13:40:34.103Z,4.88
2022-09-12T13:43:18.304Z,4.45
2022-09-12T13:45:47.046Z,4.80
2022-09-12T13:48:16.827Z,4.20
2022-09-12T13:50:49.607Z,4.70
2022-09-12T13:53:18.206Z,4.72
2022-09-12T13:55:49.453Z,4.80
2022-09-12T13:58:18.209Z,4.30
2022-09-12T14:00:45.435Z,4.00
2022-09-12T14:03:48.242Z,4.30
2022-09-12T14:06:16.304Z,4.22
2022-09-12T14:08:44.434Z,5.05
2022-09-12T14:11:12.359Z,4.10
2022-09-12T14:13:39.703Z,4.10
2022-09-12T14:16:09.935Z,4.32
2022-09-12T14:18:38.311Z,4.00
2022-09-12T14:21:10.524Z,4.15
2022-09-12T14:23:41.481Z,3.95
2022-09-12T14:26:12.254Z,3.70
2022-09-12T14:28:49.306Z,3.65
2022-09-12T14:31:16.770Z,3.70
2022-09-12T14:33:50.044Z,4.30
2022-09-12T14:36:20.175Z,3.40
2022-09-12T14:38:50.321Z,3.50
2022-09-12T14:41:23.447Z,3.53
2022-09-12T14:43:52.986Z,3.53
2022-09-12T14:46:25.517Z,3.80
2022-09-12T14:48:54.328Z,3.63
2022-09-12T14:51:41.687Z,3.70
2022-09-12T14:54:29.164Z,3.50
2022-09-12T14:57:03.340Z,4.43
2022-09-12T14:59:32.198Z,3.95
2022-09-12T15:02:14.365Z,3.72
2022-09-12T15:04:42.455Z,4.00
2022-09-12T15:07:15.551Z,3.45
2022-09-12T15:09:47.107Z,3.40
2022-09-12T15:12:14.523Z,3.92
2022-09-12T15:14:41.578Z,3.80
2022-09-12T15:17:08.687Z,3.35
2022-09-12T15:19:35.742Z,3.90
2022-09-12T15:22:02.856Z,3.47
2022-09-12T15:24:29.947Z,3.30
2022-09-12T15:26:57.034Z,4.00
2022-09-12T15:29:24.154Z,3.58
2022-09-12T15:31:51.653Z,3.40
2022-09-12T15:34:19.557Z,3.83
2022-09-12T15:36:46.628Z,3.20
2022-09-12T15:39:13.768Z,3.90
2022-09-12T15:41:41.008Z,3.38
2022-09-12T15:44:08.795Z,3.60
2022-09-12T15:46:36.027Z,3.60
2022-09-12T15:49:03.137Z,3.70
2022-09-12T15:51:30.219Z,3.47
2022-09-12T15:53:57.339Z,3.95
2022-09-12T15:56:24.406Z,4.00
2022-09-12T15:58:59.998Z,4.22
2022-09-12T16:01:28.210Z,4.38
2022-09-12T16:03:55.465Z,4.55
2022-09-12T16:06:22.779Z,4.30
2022-09-12T16:08:49.960Z,4.30
2022-09-12T16:11:17.014Z,4.10
2022-09-12T16:13:44.066Z,4.50
2022-09-12T16:16:11.429Z,4.35
2022-09-12T16:18:40.611Z,4.25
2022-09-12T16:21:11.467Z,4.60
2022-09-12T16:23:43.141Z,4.35
2022-09-12T16:26:10.239Z,4.40
2022-09-12T16:28:37.481Z,4.50
2022-09-12T16:31:05.925Z,4.45
2022-09-12T16:33:33.283Z,4.55
2022-09-12T16:36:04.622Z,4.45
2022-09-12T16:38:32.315Z,4.63
2022-09-12T16:41:03.301Z,4.82
2022-09-12T16:43:30.738Z,4.53
2022-09-12T16:46:09.225Z,4.47
2022-09-12T16:48:36.833Z,4.65
2022-09-12T16:51:06.742Z,4.45
2022-09-12T16:53:34.814Z,4.75
2022-09-12T16:56:01.977Z,5.03
2022-09-12T16:58:32.352Z,4.60
2022-09-12T17:01:07.094Z,4.90
2022-09-12T17:03:34.305Z,4.68
2022-09-12T17:06:02.284Z,4.87
2022-09-12T17:08:29.910Z,4.80
2022-09-12T17:11:03.630Z,5.00
2022-09-12T17:13:52.932Z,5.33
2022-09-12T17:16:19.253Z,5.00
2022-09-12T17:18:46.828Z,5.00
2022-09-12T17:21:13.997Z,5.00
2022-09-12T17:23:41.728Z,4.70
2022-09-12T17:26:10.133Z,4.87
2022-09-12T17:28:38.242Z,5.33
2022-09-12T17:31:06.881Z,5.40
2022-09-12T17:33:34.178Z,5.33
2022-09-12T17:36:02.499Z,5.03
2022-09-12T17:38:31.941Z,5.30
2022-09-12T17:41:05.198Z,5.90
2022-09-12T17:43:33.281Z,5.57
2022-09-12T17:46:00.745Z,5.30
2022-09-12T17:48:27.971Z,6.10
2022-09-12T17:50:55.077Z,5.93
2022-09-12T17:53:22.157Z,5.40
2022-09-12T17:55:52.605Z,7.40
2022-09-12T17:58:21.373Z,9.47
2022-09-12T18:01:06.970Z,8.50
2022-09-12T18:03:35.210Z,8.57
2022-09-12T18:06:02.281Z,7.50
2022-09-12T18:08:29.423Z,6.40
2022-09-12T18:11:03.828Z,6.37
2022-09-12T18:13:32.249Z,6.27
2022-09-12T18:16:07.273Z,6.30
2022-09-12T18:18:35.235Z,6.27
2022-09-12T18:21:03.131Z,6.33
2022-09-12T18:23:30.559Z,6.83
2022-09-12T18:25:58.472Z,6.57
2022-09-12T18:28:25.849Z,6.73
2022-09-12T18:30:53.008Z,6.63
2022-09-12T18:33:23.863Z,6.97
2022-09-12T18:35:51.341Z,7.00
2022-09-12T18:38:18.425Z,7.53
2022-09-12T18:40:45.593Z,7.80
2022-09-12T18:43:14.266Z,9.13
2022-09-12T18:45:41.577Z,8.00
2022-09-12T18:48:09.405Z,9.87
2022-09-12T18:50:36.482Z,9.57
2022-09-12T18:53:03.592Z,9.63
2022-09-12T18:55:31.798Z,9.87
2022-09-12T18:57:58.900Z,10.17
2022-09-12T19:00:26.033Z,9.70
2022-09-12T19:02:53.415Z,11.87
2022-09-12T19:05:20.514Z,11.50
2022-09-12T19:07:47.920Z,10.93
2022-09-12T19:10:15.024Z,9.37
2022-09-12T19:12:42.129Z,8.40
2022-09-12T19:15:09.811Z,8.50
2022-09-12T19:17:36.940Z,9.30
2022-09-12T19:20:05.727Z,9.97
2022-09-12T19:22:33.026Z,9.87
2022-09-12T19:25:00.106Z,10.40
2022-09-12T19:27:27.223Z,41.97
2022-09-12T19:29:54.445Z,59.73
2022-09-12T19:32:22.579Z,51.30
2022-09-12T19:34:49.677Z,31.80
2022-09-12T19:37:16.795Z,29.17
2022-09-12T19:39:45.890Z,32.20
2022-09-12T19:42:13.189Z,31.53
2022-09-12T19:44:40.286Z,16.87
2022-09-12T19:47:07.411Z,17.43
2022-09-12T19:49:34.525Z,16.20
2022-09-12T19:52:01.665Z,13.07
2022-09-12T19:54:28.744Z,12.87
2022-09-12T19:56:55.834Z,19.57
2022-09-12T19:59:22.913Z,14.87
2022-09-12T20:01:50.068Z,10.60
2022-09-12T20:04:17.246Z,10.20
2022-09-12T20:06:44.337Z,11.20
2022-09-12T20:09:11.776Z,10.83
2022-09-12T20:11:38.883Z,15.37
2022-09-12T20:14:06.003Z,23.57
2022-09-12T20:16:33.438Z,34.47
2022-09-12T20:19:02.367Z,39.27
2022-09-12T20:21:35.783Z,32.07
2022-09-12T20:24:11.452Z,20.20
2022-09-12T20:26:38.547Z,19.13
2022-09-12T20:29:06.345Z,18.37
2022-09-12T20:31:33.848Z,16.30
2022-09-12T20:34:01.124Z,13.07
2022-09-12T20:36:28.603Z,12.97
2022-09-12T20:38:56.847Z,10.87
2022-09-12T20:41:24.820Z,10.37
2022-09-12T20:43:52.651Z,11.63
2022-09-12T20:46:22.168Z,10.27
2022-09-12T20:48:49.682Z,10.63
2022-09-12T20:51:16.813Z,10.67
2022-09-12T20:53:43.999Z,10.40
2022-09-12T20:56:11.123Z,10.10
2022-09-12T20:58:43.075Z,9.83
2022-09-12T21:01:12.309Z,10.03
2022-09-12T21:03:39.703Z,9.60
2022-09-12T21:06:07.507Z,9.47
2022-09-12T21:08:34.850Z,9.70
2022-09-12T21:11:01.941Z,9.17
2022-09-12T21:13:29.388Z,9.53
2022-09-12T21:16:15.730Z,9.77
2022-09-12T21:18:43.291Z,10.30
2022-09-12T21:21:11.101Z,9.67
2022-09-12T21:23:38.454Z,10.60
2022-09-12T21:26:05.678Z,9.97
2022-09-12T21:28:33.013Z,9.63
2022-09-12T21:31:00.265Z,9.87
2022-09-12T21:33:28.130Z,10.10
2022-09-12T21:35:57.907Z,10.30
2022-09-12T21:38:24.980Z,9.53
2022-09-12T21:40:52.069Z,10.53
2022-09-12T21:43:19.142Z,9.87
2022-09-12T21:45:46.201Z,9.87
2022-09-12T21:48:13.374Z,10.10
2022-09-12T21:50:40.441Z,10.43
2022-09-12T21:53:07.604Z,10.60
2022-09-12T21:55:34.708Z,10.67
2022-09-12T21:58:01.773Z,11.30
2022-09-12T22:00:28.890Z,10.50
2022-09-12T22:02:56.215Z,11.13
2022-09-12T22:05:24.636Z,10.97
2022-09-12T22:07:52.620Z,11.13
2022-09-12T22:10:19.745Z,10.97
2022-09-12T22:12:46.798Z,11.60
2022-09-12T22:15:38.981Z,11.57
2022-09-12T22:18:01.235Z,11.77
2022-09-12T22:20:28.530Z,12.50
2022-09-12T22:23:15.925Z,12.73
2022-09-12T22:25:43.050Z,12.77
2022-09-12T22:28:10.484Z,13.67
2022-09-12T22:30:38.574Z,12.93
2022-09-12T22:33:05.682Z,14.80
2022-09-12T22:35:32.887Z,14.53
2022-09-12T22:38:00.024Z,14.83
2022-09-12T22:40:27.092Z,14.00
2022-09-12T22:42:54.320Z,15.57
2022-09-12T22:45:21.366Z,14.73
2022-09-12T22:47:48.436Z,15.53
2022-09-12T22:50:15.649Z,15.33
2022-09-12T22:52:42.804Z,15.30
2022-09-12T22:55:10.041Z,14.83
2022-09-12T22:57:37.770Z,13.80
2022-09-12T23:00:08.541Z,14.70
2022-09-12T23:02:35.641Z,14.33
2022-09-12T23:05:02.807Z,14.00
2022-09-12T23:07:29.943Z,14.53
2022-09-12T23:09:57.021Z,13.37
2022-09-12T23:12:24.170Z,13.90
2022-09-12T23:14:51.288Z,15.37
2022-09-12T23:17:18.482Z,14.47
2022-09-12T23:19:45.521Z,13.80
2022-09-12T23:22:12.600Z,13.17
2022-09-12T23:24:39.708Z,13.23
2022-09-12T23:27:06.790Z,13.93
2022-09-12T23:29:35.365Z,13.53
2022-09-12T23:32:03.326Z,14.10
2022-09-12T23:34:30.908Z,14.50
2022-09-12T23:36:58.022Z,14.40
2022-09-12T23:39:25.138Z,14.93
2022-09-12T23:41:52.238Z,15.10
2022-09-12T23:44:19.345Z,14.77
2022-09-12T23:46:46.473Z,14.43
2022-09-12T23:49:13.576Z,14.47
2022-09-12T23:51:40.683Z,14.00
2022-09-12T23:54:07.809Z,14.47
2022-09-12T23:56:34.872Z,14.93
2022-09-12T23:59:01.987Z,14.23
